^^
Grace C. Lehan Memorial Weather Station Historical Data
Daily Summary for February 14, 2021 Units:  English    Metric   Both
Daily Weekly Monthly Yearly
  High: Low: Average:
Temperature: 64.6 °F 61.3 °F 63.2 °F
Dew Point: 61.3 °F 57.8 °F 59.7 °F
Humidity: 95% 81% 88%
Wind Speed: 0.7mph 0mph 0mph
Wind Gust: 4mph - -
Wind- - SSW
Pressure: 29.90 in 29.82 in -
Precipitation: 0.65 in    
 
 
Tabular Data for February 14, 2021
Time Temperature Dew Point Pressure Wind Wind Speed Wind Gust Humidity Rainfall Rate (Hourly) solar
00:00 64.6 °F 58.7 °F 29.88 in Calm     81% 0.00 in 0 W/m2
00:09 64.5 °F 58.9 °F 29.88 in Calm     82% 0.00 in 0 W/m2
00:14 64.4 °F 58.8 °F 29.87 in Calm     82% 0.00 in 0 W/m2
00:19 64.3 °F 58.7 °F 29.87 in Calm     82% 0.00 in 0 W/m2
00:24 64.3 °F 58.7 °F 29.87 in Calm     82% 0.00 in 0 W/m2
00:29 64.3 °F 58.7 °F 29.87 in Calm     82% 0.00 in 0 W/m2
00:34 64.2 °F 58.6 °F 29.86 in Calm     82% 0.00 in 0 W/m2
00:39 64.2 °F 58.6 °F 29.86 in Calm     82% 0.00 in 0 W/m2
00:44 64.1 °F 58.6 °F 29.86 in Calm     82.4% 0.00 in 0 W/m2
00:49 64.1 °F 58.5 °F 29.86 in Calm     82% 0.00 in 0 W/m2
00:54 64 °F 58.4 °F 29.86 in Calm     82% 0.00 in 0 W/m2
00:59 63.9 °F 58.4 °F 29.86 in Calm     82.4% 0.00 in 0 W/m2
01:04 63.9 °F 58.6 °F 29.85 in Calm     83% 0.00 in 0 W/m2
01:09 63.8 °F 58.5 °F 29.85 in Calm     82.7% 0.00 in 0 W/m2
01:14 63.8 °F 58.2 °F 29.85 in Calm     82% 0.00 in 0 W/m2
01:19 63.7 °F 58.2 °F 29.85 in Calm     82.1% 0.00 in 0 W/m2
01:24 63.7 °F 58.2 °F 29.85 in Calm     82.2% 0.00 in 0 W/m2
01:29 63.7 °F 58.2 °F 29.85 in Calm     82.2% 0.00 in 0 W/m2
01:34 63.7 °F 58.3 °F 29.85 in Calm     82.5% 0.00 in 0 W/m2
01:39 63.7 °F 58.1 °F 29.85 in Calm     82% 0.00 in 0 W/m2
01:44 63.8 °F 58.2 °F 29.85 in Calm     82% 0.00 in 0 W/m2
01:49 63.8 °F 58.2 °F 29.85 in Calm     82% 0.00 in 0 W/m2
01:54 63.8 °F 58.2 °F 29.85 in Calm     82% 0.00 in 0 W/m2
01:59 63.8 °F 58.2 °F 29.85 in Calm     82% 0.00 in 0 W/m2
02:04 63.8 °F 58 °F 29.85 in Calm     81.6% 0.00 in 0 W/m2
02:09 63.7 °F 57.8 °F 29.85 in Calm     81.2% 0.00 in 0 W/m2
02:14 63.7 °F 57.8 °F 29.85 in Calm     81% 0.00 in 0 W/m2
02:19 63.7 °F 57.8 °F 29.85 in Calm     81% 0.00 in 0 W/m2
02:24 63.7 °F 57.8 °F 29.85 in Calm     81% 0.00 in 0 W/m2
02:29 63.7 °F 57.8 °F 29.85 in Calm     81% 0.00 in 0 W/m2
02:34 63.7 °F 57.8 °F 29.85 in Calm     81% 0.00 in 0 W/m2
02:39 63.7 °F 57.8 °F 29.85 in Calm     81% 0.00 in 0 W/m2
02:44 63.7 °F 57.8 °F 29.85 in Calm     81% 0.00 in 0 W/m2
02:49 63.7 °F 57.8 °F 29.85 in Calm     81% 0.00 in 0 W/m2
02:54 63.6 °F 57.8 °F 29.85 in Calm     81.3% 0.00 in 0 W/m2
02:59 63.6 °F 58 °F 29.85 in Calm     82% 0.00 in 0 W/m2
03:04 63.5 °F 57.9 °F 29.85 in Calm     82% 0.00 in 0 W/m2
03:09 63.4 °F 57.8 °F 29.85 in Calm     82% 0.00 in 0 W/m2
03:14 63.3 °F 57.8 °F 29.85 in Calm     82.2% 0.00 in 0 W/m2
03:19 63.2 °F 58 °F 29.85 in Calm     83% 0.00 in 0 W/m2
03:24 63.1 °F 58 °F 29.85 in Calm     83.2% 0.00 in 0 W/m2
03:29 63.1 °F 58.2 °F 29.84 in Calm     84% 0.00 in 0 W/m2
03:34 63 °F 58.1 °F 29.84 in Calm     84% 0.00 in 0 W/m2
03:39 63 °F 58.1 °F 29.84 in Calm     84.1% 0.00 in 0 W/m2
03:44 63 °F 58.4 °F 29.84 in Calm     85% 0.00 in 0 W/m2
03:49 63 °F 58.4 °F 29.84 in Calm     85% 0.00 in 0 W/m2
03:54 63.1 °F 58.5 °F 29.84 in Calm     85% 0.00 in 0 W/m2
03:59 63.1 °F 58.5 °F 29.84 in Calm     85% 0.00 in 0 W/m2
04:09 63.1 °F 58.8 °F 29.84 in Calm     86% 0.00 in 0 W/m2
04:14 63.1 °F 58.8 °F 29.84 in Calm     86% 0.00 in 0 W/m2
04:19 63.1 °F 58.8 °F 29.84 in Calm   1 mph 86% 0.00 in 0 W/m2
04:24 63.1 °F 59.1 °F 29.84 in Calm   1 mph 86.7% 0.00 in 0 W/m2
04:29 63.1 °F 59.2 °F 29.84 in Calm   1 mph 87% 0.00 in 0 W/m2
04:34 63.1 °F 59.2 °F 29.84 in SW 0.1 mph 2 mph 87% 0.00 in 0 W/m2
04:39 63.1 °F 59.2 °F 29.84 in Calm   2 mph 87% 0.00 in 0 W/m2
04:44 63.1 °F 59.3 °F 29.84 in Calm   2 mph 87.5% 0.00 in 0 W/m2
04:49 63.1 °F 59.5 °F 29.84 in Calm   2 mph 88% 0.00 in 0 W/m2
04:54 63.1 °F 59.5 °F 29.85 in SW 0.3 mph 3 mph 88% 0.00 in 0 W/m2
04:59 63.1 °F 59.5 °F 29.85 in Calm   3 mph 88% 0.00 in 0 W/m2
05:04 63.1 °F 59.7 °F 29.84 in Calm   3 mph 88.5% 0.00 in 0 W/m2
05:09 63.1 °F 59.8 °F 29.84 in Calm   1 mph 89% 0.00 in 0 W/m2
05:14 63.1 °F 59.8 °F 29.84 in Calm   1 mph 89% 0.00 in 0 W/m2
05:19 63.1 °F 59.8 °F 29.84 in Calm   1 mph 89% 0.00 in 0 W/m2
05:24 63.1 °F 59.8 °F 29.84 in Calm   1 mph 89% 0.00 in 0 W/m2
05:29 63.1 °F 59.8 °F 29.84 in Calm   1 mph 89% 0.00 in 0 W/m2
05:34 63.1 °F 59.8 °F 29.83 in Calm   1 mph 89% 0.00 in 7 W/m2
05:39 63.1 °F 59.8 °F 29.83 in Calm     89% 0.00 in 11 W/m2
05:44 63.1 °F 59.8 °F 29.83 in Calm     89% 0.00 in 11 W/m2
05:49 63.1 °F 59.8 °F 29.83 in Calm     89% 0.00 in 14 W/m2
05:54 63.1 °F 59.8 °F 29.83 in Calm     89% 0.00 in 18 W/m2
05:59 63.1 °F 60 °F 29.84 in Calm   1 mph 89.6% 0.00 in 16 W/m2
06:04 63.2 °F 60.1 °F 29.84 in SSW 0.5 mph 3 mph 89.5% 0.00 in 5 W/m2
06:09 63.2 °F 59.9 °F 29.85 in Calm   3 mph 89% 0.00 in 9 W/m2
06:14 63.2 °F 59.9 °F 29.85 in SSW 0.7 mph 4 mph 89% 0.00 in 23 W/m2
06:19 63.3 °F 60 °F 29.84 in Calm   4 mph 89% 0.00 in 32 W/m2
06:24 63.3 °F 60 °F 29.84 in SSW 0.1 mph 4 mph 89% 0.00 in 33 W/m2
06:29 63.3 °F 60 °F 29.84 in Calm   4 mph 89% 0.00 in 32 W/m2
06:34 63.4 °F 60.1 °F 29.83 in Calm   4 mph 89% 0.00 in 40 W/m2
06:39 63.5 °F 60.2 °F 29.83 in SSW 0.3 mph 4 mph 89% 0.00 in 40 W/m2
06:44 63.5 °F 60.2 °F 29.82 in Calm   4 mph 89% 0.00 in 37 W/m2
06:49 63.6 °F 60.3 °F 29.83 in SSW 0.1 mph 4 mph 89% 0.00 in 30 W/m2
06:54 63.6 °F 60.2 °F 29.83 in SW 0.1 mph 4 mph 88.5% 0.00 in 14 W/m2
06:59 63.6 °F 60 °F 29.84 in Calm   4 mph 88% 0.00 in 14 W/m2
07:04 63.7 °F 60.1 °F 29.84 in SW 0.1 mph 4 mph 88% 0.00 in 12 W/m2
07:09 63.7 °F 60.1 °F 29.84 in SSW 0.1 mph 2 mph 88% 0.00 in 11 W/m2
07:14 63.8 °F 60.2 °F 29.85 in Calm   2 mph 88% 0.00 in 5 W/m2
07:19 63.8 °F 60.2 °F 29.85 in SSW 0.3 mph 4 mph 88% 0.00 in 0 W/m2
07:24 63.9 °F 60.3 °F 29.86 in Calm   4 mph 88% 0.00 in 0 W/m2
07:29 64 °F 60.6 °F 29.88 in Calm   4 mph 88.8% 0.00 in 0 W/m2
07:34 64 °F 60.7 °F 29.88 in Calm   4 mph 89% 0.00 in 0 W/m2
07:39 64.1 °F 60.8 °F 29.88 in Calm     89% 0.00 in 0 W/m2
07:44 64.1 °F 60.8 °F 29.88 in Calm     89% 0.00 in 0 W/m2
07:49 64.1 °F 60.9 °F 29.88 in Calm     89.4% 0.01 in 0 W/m2
07:54 64.1 °F 61.1 °F 29.88 in Calm   3 mph 90% 0.02 in 0 W/m2
08:09 64 °F 61.3 °F 29.90 in Calm     90.9% 0.10 in 0 W/m2
08:14 63.9 °F 61.2 °F 29.89 in Calm     91% 0.14 in 0 W/m2
08:19 63.6 °F 60.9 °F 29.86 in WSW 0.2 mph 2 mph 91% 0.23 in 5 W/m2
08:24 63.4 °F 60.7 °F 29.87 in Calm   2 mph 91% 0.27 in 5 W/m2
08:29 63.2 °F 60.9 °F 29.87 in Calm   2 mph 92% 0.30 in 7 W/m2
08:34 63.1 °F 60.7 °F 29.87 in Calm   2 mph 92% 0.30 in 5 W/m2
08:39 63 °F 60.9 °F 29.87 in Calm     92.6% 0.30 in 5 W/m2
08:44 63.1 °F 61 °F 29.87 in Calm     93% 0.30 in 9 W/m2
08:49 63 °F 60.9 °F 29.87 in Calm     93% 0.30 in 14 W/m2
08:54 62.9 °F 60.8 °F 29.87 in Calm     93% 0.32 in 18 W/m2
08:59 62.8 °F 60.7 °F 29.87 in Calm     93% 0.32 in 30 W/m2
09:04 62.7 °F 60.7 °F 29.87 in Calm     93% 0.32 in 46 W/m2
09:09 62.7 °F 60.8 °F 29.87 in Calm     93.6% 0.03 in 42 W/m2
09:14 62.7 °F 61 °F 29.87 in Calm     94% 0.14 in 44 W/m2
09:19 62.8 °F 61.1 °F 29.87 in Calm     94% 0.14 in 44 W/m2
09:24 63 °F 61.2 °F 29.87 in Calm     94% 0.14 in 35 W/m2
09:29 63 °F 61.3 °F 29.87 in Calm     94% 0.17 in 32 W/m2
09:34 63.1 °F 61.3 °F 29.87 in Calm     94% 0.17 in 51 W/m2
09:39 63.1 °F 61.3 °F 29.86 in Calm     94% 0.17 in 54 W/m2
09:44 63 °F 61.3 °F 29.86 in Calm     94% 0.17 in 44 W/m2
09:49 63 °F 61.3 °F 29.86 in Calm     94% 0.17 in 44 W/m2
09:54 62.9 °F 61.2 °F 29.86 in Calm     94% 0.18 in 77 W/m2
09:59 62.7 °F 61 °F 29.87 in Calm     94% 0.18 in 97 W/m2
10:04 62.7 °F 60.9 °F 29.86 in Calm     94% 0.18 in 91 W/m2
10:09 62.6 °F 60.8 °F 29.86 in Calm     94% 0.17 in 146 W/m2
10:14 62.5 °F 60.8 °F 29.86 in Calm     94% 0.17 in 134 W/m2
10:19 62.5 °F 60.8 °F 29.87 in Calm     94% 0.17 in 62 W/m2
10:24 62.5 °F 60.8 °F 29.87 in Calm     94% 0.19 in 69 W/m2
10:29 62.5 °F 60.8 °F 29.87 in Calm     94% 0.20 in 56 W/m2
10:34 62.5 °F 60.9 °F 29.87 in Calm     94.4% 0.20 in 51 W/m2
10:39 62.7 °F 61.2 °F 29.87 in Calm     95% 0.06 in 63 W/m2
10:44 62.7 °F 61.3 °F 29.87 in Calm     95% 0.06 in 47 W/m2
10:49 62.7 °F 61.1 °F 29.87 in Calm     94.5% 0.06 in 56 W/m2
10:54 62.6 °F 60.9 °F 29.86 in Calm     94.1% 0.08 in 63 W/m2
10:59 62.7 °F 61.2 °F 29.87 in Calm     95% 0.08 in 62 W/m2
11:04 62.7 °F 61.2 °F 29.87 in Calm     95% 0.08 in 35 W/m2
11:09 62.5 °F 60.9 °F 29.87 in Calm     94.5% 0.09 in 25 W/m2
11:14 62.3 °F 60.5 °F 29.87 in Calm     94% 0.14 in 32 W/m2
11:19 62 °F 60.2 °F 29.86 in Calm     94% 0.16 in 44 W/m2
11:24 61.8 °F 60.1 °F 29.87 in Calm     94% 0.16 in 44 W/m2
11:29 61.7 °F 60 °F 29.87 in Calm     94% 0.16 in 102 W/m2
11:34 61.8 °F 60 °F 29.87 in Calm     94% 0.16 in 102 W/m2
11:39 61.8 °F 60.2 °F 29.87 in South 0.3 mph 4 mph 94.4% 0.12 in 163 W/m2
11:44 62 °F 60.6 °F 29.87 in Calm   4 mph 95% 0.12 in 246 W/m2
11:49 62.3 °F 60.8 °F 29.86 in SSW 0.2 mph 4 mph 95% 0.12 in 295 W/m2
11:54 62.6 °F 61.2 °F 29.86 in SE 0.3 mph 4 mph 95% 0.12 in 237 W/m2
11:59 62.6 °F 61.1 °F 29.86 in Calm   4 mph 95% 0.12 in 109 W/m2
12:00 62.4 °F 61 °F 29.86 in Calm   4 mph 95% 0.12 in 93 W/m2
12:09 62.2 °F 60.5 °F 29.86 in SSW 0.4 mph 4 mph 94% 0.09 in 290 W/m2
12:14 62.1 °F 60.4 °F 29.86 in SSW 0.4 mph 4 mph 94% 0.09 in 118 W/m2
12:19 61.9 °F 60.1 °F 29.87 in SSW 0.1 mph 4 mph 93.8% 0.09 in 79 W/m2
12:24 61.6 °F 59.6 °F 29.87 in Calm   4 mph 93% 0.09 in 32 W/m2
12:29 61.5 °F 59.5 °F 29.87 in Calm   4 mph 93% 0.10 in 49 W/m2
12:34 61.3 °F 59.3 °F 29.86 in Calm   4 mph 93% 0.10 in 62 W/m2
12:38 61.3 °F 59.3 °F 29.86 in Calm     93% 0.01 in 47 W/m2
Hartford County Weather
Compliments of Weather Underground - 2 mb